Portada
METAR-TAF:

METAR-TAF

Aeroports :

Txità, Rússia

latitud: 52-05N, longitud: 113-29E, altitud: 685 m

Observació

L'informe es va fer fa 36 minuts, a les 00:30 UTC
Vent 4 kt del Oest/Sud-Oest, variant entre Sud/Sud-Oest i Oest/Nord-Oest
Temperatura -15°C
Humitat 78%
Pressió 1026 hPa
Visibilitat 10 km o més

METAR: UIAA 180030Z 24002MPS 210V290 9999 NSC M15/M18 Q1026 R29/410160 NOSIG RMK QFE710/0947

Hora: 10:06 (01:06 UTC)

Pronòstic

L'informe es va fer fa 2 hores i 6 minuts, a les 23:00 UTC
Pronòstic vàlid del 18 a les 00 UTC al 18 a les 24 UTC
Vent 6 kt del Sud-Oest amb ràfegues de 16 kt
Visibilitat 10 km o més
Temporalment
l' 18 a les 03 UTC al 18 a les 10 UTC
Vent 10 kt del Oest/Nord-Oest

TAF: UIAA 172300Z 1800/1824 22003G08MPS 9999 NSC TEMPO 1803/1810 30005MPS

Observacions i pronòstics meteorològics de més de 4000 aeroports (METAR i TAF).

Les estacions disponibles són els punts grocs i vermells al mapa.

Posi el ratolí al punt desitjat per veure el nom de l'estació.

Feu clic per veure les observacions i els pronòstics meteorològics.

Per canviar el mapa: feu clic els botons verds amb una creu de color negre per apropar; al botó verd amb un guió per allunyar la imatge; o en les fletxes verdes per a mapes adjacents.


METAR-TAF: